| Date | Time | Temp. (oF) | Dew Point (oF) | Rel. Hum. (%) | Press. (in.) | Wind Dir. | Wind Speed (mph) | Hourly Rainfall (in.) |
|
|---|---|---|---|---|---|---|---|---|---|
| 1 | 01/06 | 00:00 | 26 | 25 | 97 | 29.96 | ESE | 1 | 0.00 |
| 2 | 01/05 | 23:00 | 25 | 24 | 99 | 29.97 | SW | 0 | 0.00 |
| 3 | 01/05 | 22:00 | 25 | 24 | 97 | 29.99 | NE | 0 | 0.00 |
| 4 | 01/05 | 21:00 | 26 | 23 | 91 | 29.99 | ENE | 0 | 0.00 |
| 5 | 01/05 | 20:00 | 28 | 23 | 84 | 29.99 | SW | 2 | 0.00 |
| 6 | 01/05 | 19:00 | 30 | 24 | 81 | 29.98 | NE | 0 | 0.00 |
| 7 | 01/05 | 18:00 | 33 | 24 | 71 | 29.98 | SW | 0 | 0.00 |
| 8 | 01/05 | 17:00 | 36 | 25 | 65 | 29.97 | WNW | 4 | 0.00 |
| 9 | 01/05 | 16:00 | 38 | 24 | 59 | 29.94 | NW | 4 | 0.00 |
| 10 | 01/05 | 15:00 | 39 | 24 | 56 | 29.92 | WSW | 4 | 0.00 |
| 11 | 01/05 | 14:00 | 40 | 25 | 55 | 29.94 | NW | 16 | 0.00 |
| 12 | 01/05 | 13:00 | 38 | 25 | 61 | 29.95 | NW | 11 | 0.00 |
| 13 | 01/05 | 12:00 | 36 | 25 | 66 | 29.97 | NNW | 4 | 0.00 |
| 14 | 01/05 | 11:00 | 34 | 24 | 69 | 29.99 | SSW | 3 | 0.00 |
| 15 | 01/05 | 10:00 | 33 | 26 | 77 | 30.01 | WSW | 3 | 0.00 |
| 16 | 01/05 | 09:00 | 28 | 23 | 82 | 30.02 | SSW | 2 | 0.00 |
| 17 | 01/05 | 08:00 | 27 | 22 | 82 | 30.02 | WNW | 0 | 0.00 |
| 18 | 01/05 | 07:00 | 26 | 21 | 84 | 30.00 | W | 0 | 0.00 |
| 19 | 01/05 | 06:00 | 26 | 21 | 83 | 29.97 | NNE | 2 | 0.00 |
| 20 | 01/05 | 05:00 | 25 | 21 | 85 | 29.96 | SSW | 0 | 0.00 |
| 21 | 01/05 | 04:00 | 25 | 19 | 81 | 29.95 | NNE | 1 | 0.00 |
| 22 | 01/05 | 03:00 | 24 | 19 | 82 | 29.96 | SSW | 0 | 0.00 |
| 23 | 01/05 | 02:00 | 23 | 18 | 84 | 29.98 | SSW | 0 | 0.00 |
| 24 | 01/05 | 01:00 | 23 | 15 | 74 | 30.00 | SSE | 0 | 0.00 |